Time;durP1;ratioP1;P1;durP2;ratioP2;P2;SDS_P1;SDS_P2;PMS_P1;PMS_P2;Temp;Humidity;BMP_temperature;BMP_pressure;BME280_temperature;BME280_humidity;BME280_pressure;Samples;Min_cycle;Max_cycle;Signal;HPM_P1;HPM_P2
2023/08/18 00:08:09;;;;;;;;;;;18.70;99.90;;;;;;20973022;28;19912;-71
2023/08/18 00:18:10;;;;;;;;;;;18.30;99.90;;;;;;20972998;28;19927;-71
2023/08/18 00:28:11;;;;;;;;;;;18.40;99.90;;;;;;20988763;28;19916;-72
2023/08/18 00:38:12;;;;;;;;;;;18.60;99.90;;;;;;21006634;28;20433;-72
2023/08/18 00:48:13;;;;;;;;;;;18.50;99.90;;;;;;20983659;28;19966;-72
2023/08/18 00:58:14;;;;;;;;;;;18.60;99.90;;;;;;20965546;28;19924;-72
2023/08/18 01:08:14;;;;;;;;;;;18.60;99.90;;;;;;20975955;28;19958;-72
2023/08/18 01:18:15;;;;;;;;;;;18.50;99.90;;;;;;20982327;28;19960;-71
2023/08/18 01:28:16;;;;;;;;;;;18.60;99.90;;;;;;20989330;28;19920;-72
2023/08/18 01:38:19;;;;;;;;;;;18.20;99.90;;;;;;20967664;28;19916;-73
2023/08/18 01:48:20;;;;;;;;;;;18.10;99.90;;;;;;20972686;28;19916;-72
2023/08/18 01:58:20;;;;;;;;;;;18.00;99.90;;;;;;20958369;28;20271;-72
2023/08/18 02:08:21;;;;;;;;;;;18.00;99.90;;;;;;20980404;28;20370;-72
2023/08/18 02:18:22;;;;;;;;;;;17.90;99.90;;;;;;20979952;28;19955;-72
2023/08/18 02:28:22;;;;;;;;;;;17.80;99.90;;;;;;20967709;28;19999;-72
2023/08/18 02:38:23;;;;;;;;;;;17.40;99.90;;;;;;20994310;28;19917;-72
2023/08/18 02:48:28;;;;;;;;;;;17.30;99.90;;;;;;20987644;28;19916;-72
2023/08/18 02:58:30;;;;;;;;;;;17.30;99.90;;;;;;20994245;28;21415;-72
2023/08/18 03:08:32;;;;;;;;;;;17.40;99.90;;;;;;21003198;28;19916;-72
2023/08/18 03:18:34;;;;;;;;;;;17.30;99.90;;;;;;20979536;28;19969;-72
2023/08/18 03:28:38;;;;;;;;;;;17.10;99.90;;;;;;20979047;28;20375;-72
2023/08/18 03:38:38;;;;;;;;;;;17.20;99.90;;;;;;20982914;28;19924;-72
2023/08/18 03:48:39;;;;;;;;;;;17.10;99.90;;;;;;20977334;28;19917;-72
2023/08/18 03:58:40;;;;;;;;;;;17.20;99.90;;;;;;20973464;28;19962;-72
2023/08/18 04:08:42;;;;;;;;;;;17.10;99.90;;;;;;20990853;28;20322;-72
2023/08/18 04:18:43;;;;;;;;;;;17.00;99.90;;;;;;20982058;28;19917;-71
2023/08/18 04:28:45;;;;;;;;;;;16.80;99.90;;;;;;20978188;28;20329;-72
2023/08/18 04:38:45;;;;;;;;;;;16.90;99.90;;;;;;20978270;28;20438;-74
2023/08/18 04:48:59;;;;;;;;;;;16.80;99.90;;;;;;20973955;28;19916;-73
2023/08/18 04:59:00;;;;;;;;;;;16.70;99.90;;;;;;20988088;28;19943;-73
2023/08/18 05:09:01;;;;;;;;;;;16.70;99.90;;;;;;20993072;28;20058;-73
2023/08/18 05:19:02;;;;;;;;;;;16.70;99.90;;;;;;20973880;28;19988;-70
2023/08/18 05:29:03;;;;;;;;;;;16.70;99.90;;;;;;20989419;28;20283;-72
2023/08/18 05:39:03;;;;;;;;;;;16.90;99.90;;;;;;20979040;28;19923;-73
2023/08/18 05:49:04;;;;;;;;;;;17.30;99.90;;;;;;20995105;28;20272;-73
2023/08/18 05:59:05;;;;;;;;;;;17.60;99.90;;;;;;20966763;28;20387;-73
2023/08/18 06:09:05;;;;;;;;;;;17.90;99.90;;;;;;20980151;28;19912;-73
2023/08/18 06:19:08;;;;;;;;;;;18.30;99.90;;;;;;20991565;28;20331;-73
2023/08/18 06:29:08;;;;;;;;;;;18.80;99.90;;;;;;20990421;28;19913;-74
2023/08/18 06:39:09;;;;;;;;;;;19.20;99.90;;;;;;21006835;28;19974;-74
2023/08/18 06:49:10;;;;;;;;;;;19.70;99.90;;;;;;20999721;28;20008;-74
2023/08/18 06:59:13;;;;;;;;;;;20.50;99.90;;;;;;20987780;28;19936;-74
2023/08/18 07:09:14;;;;;;;;;;;21.00;99.90;;;;;;20994412;28;19912;-74
2023/08/18 07:19:15;;;;;;;;;;;21.60;99.90;;;;;;20983544;28;20484;-74
2023/08/18 07:29:15;;;;;;;;;;;21.80;99.90;;;;;;21004930;28;19956;-74
2023/08/18 07:39:16;;;;;;;;;;;22.70;99.90;;;;;;21010480;28;19917;-74
2023/08/18 07:49:17;;;;;;;;;;;23.20;99.90;;;;;;21001182;28;19926;-74
2023/08/18 07:59:17;;;;;;;;;;;23.20;99.90;;;;;;20992526;28;19912;-73
2023/08/18 08:09:18;;;;;;;;;;;23.20;99.90;;;;;;20983347;28;20379;-74
2023/08/18 08:19:19;;;;;;;;;;;24.10;99.90;;;;;;20991582;28;19912;-72
2023/08/18 08:29:19;;;;;;;;;;;25.00;99.90;;;;;;20984822;28;20559;-73
2023/08/18 08:39:20;;;;;;;;;;;25.80;99.90;;;;;;20981415;28;19924;-73
2023/08/18 08:49:22;;;;;;;;;;;26.00;99.90;;;;;;20997177;28;19912;-73
2023/08/18 08:59:23;;;;;;;;;;;26.90;99.90;;;;;;20930796;28;20015;-72
2023/08/18 09:09:23;;;;;;;;;;;27.30;99.90;;;;;;20954590;28;19912;-73
2023/08/18 09:19:25;;;;;;;;;;;27.70;99.90;;;;;;20969811;28;19920;-74
2023/08/18 09:29:25;;;;;;;;;;;29.10;99.90;;;;;;20989981;28;19912;-73
2023/08/18 09:39:27;;;;;;;;;;;29.10;99.90;;;;;;20962104;28;19947;-74
2023/08/18 09:49:29;;;;;;;;;;;29.80;99.90;;;;;;20992919;28;19912;-73
2023/08/18 09:59:38;;;;;;;;;;;30.20;99.90;;;;;;20994047;28;19912;-73
2023/08/18 10:09:41;;;;;;;;;;;30.50;99.90;;;;;;20992933;28;19916;-73
2023/08/18 10:19:50;;;;;;;;;;;30.90;99.90;;;;;;20993305;28;19912;-74
2023/08/18 10:29:52;;;;;;;;;;;30.40;99.90;;;;;;20991252;28;19923;-73
2023/08/18 10:39:56;;;;;;;;;;;31.70;99.90;;;;;;20991174;28;19917;-73
2023/08/18 10:49:58;;;;;;;;;;;31.90;99.90;;;;;;20971702;28;19962;-74
2023/08/18 10:59:58;;;;;;;;;;;32.90;99.60;;;;;;20991542;28;20365;-74
2023/08/18 11:09:59;;;;;;;;;;;32.70;99.60;;;;;;21013432;28;20007;-74
2023/08/18 11:19:59;;;;;;;;;;;32.70;99.90;;;;;;20983508;28;20003;-74
2023/08/18 11:30:01;;;;;;;;;;;33.40;98.80;;;;;;20968368;28;20316;-74
2023/08/18 11:40:03;;;;;;;;;;;34.30;95.80;;;;;;20977282;28;20399;-74
2023/08/18 11:50:05;;;;;;;;;;;35.00;96.80;;;;;;20966978;28;19951;-73
2023/08/18 12:00:11;;;;;;;;;;;34.40;95.70;;;;;;20985040;28;20010;-73
2023/08/18 12:10:12;;;;;;;;;;;33.60;93.80;;;;;;20991909;28;19923;-73
2023/08/18 12:20:12;;;;;;;;;;;34.70;89.70;;;;;;20991594;28;19916;-74
2023/08/18 12:30:13;;;;;;;;;;;35.00;88.20;;;;;;20981518;28;19924;-75
2023/08/18 12:40:14;;;;;;;;;;;35.60;86.50;;;;;;20963540;28;19917;-74
2023/08/18 12:50:15;;;;;;;;;;;35.10;84.10;;;;;;20980189;28;20032;-75
2023/08/18 13:00:16;;;;;;;;;;;36.80;83.40;;;;;;20988375;28;19973;-74
2023/08/18 13:10:16;;;;;;;;;;;36.70;86.50;;;;;;20983309;28;20383;-75
2023/08/18 13:20:17;;;;;;;;;;;37.00;83.70;;;;;;20978098;28;20007;-75
2023/08/18 13:30:18;;;;;;;;;;;36.40;82.40;;;;;;20975235;28;19965;-75
2023/08/18 13:40:19;;;;;;;;;;;36.00;84.70;;;;;;20985902;28;19925;-74
2023/08/18 13:50:19;;;;;;;;;;;35.50;80.80;;;;;;20988558;28;19916;-74
2023/08/18 14:00:20;;;;;;;;;;;35.70;83.40;;;;;;20980545;28;19916;-74
2023/08/18 14:10:21;;;;;;;;;;;35.50;82.70;;;;;;20990966;28;19919;-74
2023/08/18 14:20:21;;;;;;;;;;;36.20;80.10;;;;;;20992202;28;19917;-74
2023/08/18 14:30:22;;;;;;;;;;;35.60;80.20;;;;;;20993198;22;20399;-80
2023/08/18 14:40:23;;;;;;;;;;;35.80;78.80;;;;;;20876878;28;19922;-79
2023/08/18 14:50:24;;;;;;;;;;;36.20;77.40;;;;;;20814217;28;19913;-78
2023/08/18 15:00:24;;;;;;;;;;;35.80;71.80;;;;;;20799509;28;19917;-78
2023/08/18 15:10:25;;;;;;;;;;;35.00;71.40;;;;;;20798108;28;19960;-78
2023/08/18 15:20:28;;;;;;;;;;;36.20;69.40;;;;;;20786856;28;19917;-78
2023/08/18 15:30:30;;;;;;;;;;;36.40;70.20;;;;;;20814078;28;19925;-78
2023/08/18 15:40:31;;;;;;;;;;;35.30;68.10;;;;;;20816841;28;19921;-78
2023/08/18 15:50:31;;;;;;;;;;;34.90;69.90;;;;;;20826650;28;19920;-79
2023/08/18 16:00:32;;;;;;;;;;;34.60;69.70;;;;;;20835623;28;20395;-81
2023/08/18 16:10:43;;;;;;;;;;;34.10;71.90;;;;;;20856303;28;19923;-80
2023/08/18 16:20:44;;;;;;;;;;;33.50;74.00;;;;;;20844457;28;20322;-79
2023/08/18 16:30:45;;;;;;;;;;;33.30;74.00;;;;;;20843511;28;19917;-79
2023/08/18 16:40:50;;;;;;;;;;;33.30;72.00;;;;;;20846544;28;19924;-78
2023/08/18 16:50:50;;;;;;;;;;;33.20;73.10;;;;;;20832301;28;19972;-79
2023/08/18 17:00:51;;;;;;;;;;;33.00;73.10;;;;;;20809360;28;19921;-79
2023/08/18 17:10:53;;;;;;;;;;;32.80;73.10;;;;;;20819251;28;19936;-79
2023/08/18 17:20:54;;;;;;;;;;;32.20;77.70;;;;;;20852109;28;19918;-79
2023/08/18 17:30:54;;;;;;;;;;;30.90;95.70;;;;;;20834333;28;19924;-79
2023/08/18 17:40:55;;;;;;;;;;;30.40;95.50;;;;;;20821719;28;19917;-77
2023/08/18 17:50:57;;;;;;;;;;;30.10;95.80;;;;;;20811972;28;19921;-77
2023/08/18 18:00:58;;;;;;;;;;;29.60;95.30;;;;;;20803688;28;19924;-77
2023/08/18 18:10:59;;;;;;;;;;;28.20;97.80;;;;;;20807350;28;19913;-77
2023/08/18 18:20:59;;;;;;;;;;;26.70;99.90;;;;;;20798143;28;20442;-76
2023/08/18 18:31:00;;;;;;;;;;;26.00;99.90;;;;;;20781184;28;19972;-76
2023/08/18 18:41:01;;;;;;;;;;;25.80;99.90;;;;;;20795114;28;19921;-77
2023/08/18 18:51:05;;;;;;;;;;;25.70;99.90;;;;;;20780493;28;19921;-76
2023/08/18 19:01:05;;;;;;;;;;;25.70;99.90;;;;;;20740650;28;19917;-76
2023/08/18 19:11:06;;;;;;;;;;;25.30;99.90;;;;;;20760195;28;20000;-77
2023/08/18 19:21:07;;;;;;;;;;;24.30;99.90;;;;;;20834980;28;19917;-76
2023/08/18 19:31:07;;;;;;;;;;;24.10;99.90;;;;;;20803297;28;19921;-77
2023/08/18 19:41:08;;;;;;;;;;;24.50;99.90;;;;;;20809570;28;20012;-76
2023/08/18 19:51:09;;;;;;;;;;;24.50;99.90;;;;;;20799584;28;20407;-76
2023/08/18 20:01:10;;;;;;;;;;;24.50;99.90;;;;;;20799792;28;19917;-76
2023/08/18 20:11:11;;;;;;;;;;;24.30;99.90;;;;;;20798545;28;20310;-76
2023/08/18 20:21:12;;;;;;;;;;;24.30;99.90;;;;;;20800706;28;19921;-77
2023/08/18 20:31:13;;;;;;;;;;;24.20;99.90;;;;;;20877485;22;19924;-72
2023/08/18 20:41:13;;;;;;;;;;;23.80;99.90;;;;;;20995474;28;19917;-72
2023/08/18 20:51:14;;;;;;;;;;;23.80;99.90;;;;;;20989915;28;19924;-72
2023/08/18 21:01:15;;;;;;;;;;;23.20;99.90;;;;;;20986979;28;19916;-72
2023/08/18 21:11:16;;;;;;;;;;;22.40;99.90;;;;;;20992191;28;20371;-72
2023/08/18 21:21:17;;;;;;;;;;;22.30;99.90;;;;;;20984400;28;20013;-71
2023/08/18 21:31:18;;;;;;;;;;;21.70;99.90;;;;;;20989913;28;19920;-72
2023/08/18 21:41:18;;;;;;;;;;;21.50;99.90;;;;;;20983534;28;20301;-72
2023/08/18 21:51:19;;;;;;;;;;;21.70;99.90;;;;;;21012262;28;19919;-72
2023/08/18 22:01:20;;;;;;;;;;;21.50;99.90;;;;;;20977210;28;19920;-71
2023/08/18 22:11:20;;;;;;;;;;;21.40;99.90;;;;;;20980475;28;19919;-72
2023/08/18 22:21:21;;;;;;;;;;;21.60;99.90;;;;;;20985729;28;19923;-72
2023/08/18 22:31:22;;;;;;;;;;;21.70;99.90;;;;;;20977741;28;19962;-72
2023/08/18 22:41:22;;;;;;;;;;;21.90;99.90;;;;;;20980653;28;20398;-72
2023/08/18 22:51:23;;;;;;;;;;;21.60;99.90;;;;;;20984166;28;19912;-71
2023/08/18 23:01:26;;;;;;;;;;;21.60;99.90;;;;;;20974893;28;19924;-72
2023/08/18 23:11:26;;;;;;;;;;;21.40;99.90;;;;;;20994073;28;19973;-72
2023/08/18 23:21:27;;;;;;;;;;;21.30;99.90;;;;;;20990691;28;19916;-72
2023/08/18 23:31:28;;;;;;;;;;;21.20;99.90;;;;;;20982357;28;19920;-72
2023/08/18 23:41:28;;;;;;;;;;;21.70;99.90;;;;;;20998421;28;19923;-72
2023/08/18 23:51:29;;;;;;;;;;;21.80;99.90;;;;;;20989350;28;19925;-72
